sensor_id;sensor_type;location;lat;lon;timestamp;P1;durP1;ratioP1;P2;durP2;ratioP2
71303;SDS011;59091;47.446;19.148;2023-08-20T00:00:04;15.30;;;10.50;;
71303;SDS011;59091;47.446;19.148;2023-08-20T00:02:32;14.40;;;10.02;;
71303;SDS011;59091;47.446;19.148;2023-08-20T00:05:01;12.68;;;10.05;;
71303;SDS011;59091;47.446;19.148;2023-08-20T00:07:28;12.30;;;9.88;;
71303;SDS011;59091;47.446;19.148;2023-08-20T00:09:54;13.88;;;10.15;;
71303;SDS011;59091;47.446;19.148;2023-08-20T00:12:19;11.18;;;9.98;;
71303;SDS011;59091;47.446;19.148;2023-08-20T00:17:17;10.85;;;9.73;;
71303;SDS011;59091;47.446;19.148;2023-08-20T00:19:42;11.18;;;9.73;;
71303;SDS011;59091;47.446;19.148;2023-08-20T00:22:08;11.48;;;10.30;;
71303;SDS011;59091;47.446;19.148;2023-08-20T00:24:34;12.13;;;10.13;;
71303;SDS011;59091;47.446;19.148;2023-08-20T00:26:59;11.57;;;10.13;;
71303;SDS011;59091;47.446;19.148;2023-08-20T00:29:25;11.20;;;9.98;;
71303;SDS011;59091;47.446;19.148;2023-08-20T00:31:50;11.73;;;10.45;;
71303;SDS011;59091;47.446;19.148;2023-08-20T00:34:16;13.15;;;10.25;;
71303;SDS011;59091;47.446;19.148;2023-08-20T00:36:41;11.23;;;10.00;;
71303;SDS011;59091;47.446;19.148;2023-08-20T00:39:06;12.23;;;10.20;;
71303;SDS011;59091;47.446;19.148;2023-08-20T00:41:32;11.40;;;10.23;;
71303;SDS011;59091;47.446;19.148;2023-08-20T00:43:57;11.02;;;9.93;;
71303;SDS011;59091;47.446;19.148;2023-08-20T00:46:23;14.82;;;10.40;;
71303;SDS011;59091;47.446;19.148;2023-08-20T00:48:48;12.80;;;10.02;;
71303;SDS011;59091;47.446;19.148;2023-08-20T00:51:14;10.95;;;9.82;;
71303;SDS011;59091;47.446;19.148;2023-08-20T00:53:40;12.18;;;10.45;;
71303;SDS011;59091;47.446;19.148;2023-08-20T00:56:05;13.10;;;10.18;;
71303;SDS011;59091;47.446;19.148;2023-08-20T00:58:31;14.73;;;9.85;;
71303;SDS011;59091;47.446;19.148;2023-08-20T01:00:57;13.68;;;10.27;;
71303;SDS011;59091;47.446;19.148;2023-08-20T01:03:22;13.45;;;10.75;;
71303;SDS011;59091;47.446;19.148;2023-08-20T01:05:50;13.65;;;10.10;;
71303;SDS011;59091;47.446;19.148;2023-08-20T01:08:26;14.13;;;9.60;;
71303;SDS011;59091;47.446;19.148;2023-08-20T01:11:01;13.05;;;10.63;;
71303;SDS011;59091;47.446;19.148;2023-08-20T01:13:28;11.15;;;9.98;;
71303;SDS011;59091;47.446;19.148;2023-08-20T01:15:53;12.05;;;10.32;;
71303;SDS011;59091;47.446;19.148;2023-08-20T01:18:19;12.93;;;9.93;;
71303;SDS011;59091;47.446;19.148;2023-08-20T01:20:45;11.60;;;9.38;;
71303;SDS011;59091;47.446;19.148;2023-08-20T01:28:32;17.45;;;9.23;;
71303;SDS011;59091;47.446;19.148;2023-08-20T01:30:58;11.07;;;9.07;;
71303;SDS011;59091;47.446;19.148;2023-08-20T01:33:24;11.70;;;10.10;;
71303;SDS011;59091;47.446;19.148;2023-08-20T01:35:54;13.57;;;10.18;;
71303;SDS011;59091;47.446;19.148;2023-08-20T01:38:20;10.52;;;9.52;;
71303;SDS011;59091;47.446;19.148;2023-08-20T01:40:46;17.23;;;9.82;;
71303;SDS011;59091;47.446;19.148;2023-08-20T01:43:12;11.25;;;9.68;;
71303;SDS011;59091;47.446;19.148;2023-08-20T01:45:38;12.13;;;9.80;;
71303;SDS011;59091;47.446;19.148;2023-08-20T01:48:03;12.38;;;9.43;;
71303;SDS011;59091;47.446;19.148;2023-08-20T01:50:29;11.60;;;10.05;;
71303;SDS011;59091;47.446;19.148;2023-08-20T01:52:55;10.65;;;9.45;;
71303;SDS011;59091;47.446;19.148;2023-08-20T01:55:20;10.95;;;9.32;;
71303;SDS011;59091;47.446;19.148;2023-08-20T01:57:45;13.52;;;9.88;;
71303;SDS011;59091;47.446;19.148;2023-08-20T02:00:11;11.30;;;10.07;;
71303;SDS011;59091;47.446;19.148;2023-08-20T02:02:37;12.15;;;10.00;;
71303;SDS011;59091;47.446;19.148;2023-08-20T02:05:03;12.98;;;10.18;;
71303;SDS011;59091;47.446;19.148;2023-08-20T02:07:28;12.18;;;10.75;;
71303;SDS011;59091;47.446;19.148;2023-08-20T02:09:54;12.05;;;10.40;;
71303;SDS011;59091;47.446;19.148;2023-08-20T02:12:19;12.23;;;10.48;;
71303;SDS011;59091;47.446;19.148;2023-08-20T02:14:44;12.35;;;11.00;;
71303;SDS011;59091;47.446;19.148;2023-08-20T02:17:10;11.80;;;10.65;;
71303;SDS011;59091;47.446;19.148;2023-08-20T02:19:37;17.92;;;10.18;;
71303;SDS011;59091;47.446;19.148;2023-08-20T02:22:02;15.95;;;10.10;;
71303;SDS011;59091;47.446;19.148;2023-08-20T02:24:28;12.25;;;10.23;;
71303;SDS011;59091;47.446;19.148;2023-08-20T02:26:53;11.07;;;9.90;;
71303;SDS011;59091;47.446;19.148;2023-08-20T02:29:19;11.32;;;10.00;;
71303;SDS011;59091;47.446;19.148;2023-08-20T02:31:44;12.10;;;10.10;;
71303;SDS011;59091;47.446;19.148;2023-08-20T02:34:10;11.48;;;9.93;;
71303;SDS011;59091;47.446;19.148;2023-08-20T02:36:35;12.80;;;10.07;;
71303;SDS011;59091;47.446;19.148;2023-08-20T02:39:01;13.63;;;10.15;;
71303;SDS011;59091;47.446;19.148;2023-08-20T02:41:28;12.85;;;10.02;;
71303;SDS011;59091;47.446;19.148;2023-08-20T02:43:54;12.27;;;9.90;;
71303;SDS011;59091;47.446;19.148;2023-08-20T02:46:19;11.40;;;9.38;;
71303;SDS011;59091;47.446;19.148;2023-08-20T02:48:44;13.88;;;10.35;;
71303;SDS011;59091;47.446;19.148;2023-08-20T02:51:10;11.50;;;9.88;;
71303;SDS011;59091;47.446;19.148;2023-08-20T02:53:35;11.30;;;10.10;;
71303;SDS011;59091;47.446;19.148;2023-08-20T02:56:01;14.27;;;9.82;;
71303;SDS011;59091;47.446;19.148;2023-08-20T02:58:27;12.52;;;9.90;;
71303;SDS011;59091;47.446;19.148;2023-08-20T03:00:52;15.85;;;10.27;;
71303;SDS011;59091;47.446;19.148;2023-08-20T03:03:18;11.18;;;9.98;;
71303;SDS011;59091;47.446;19.148;2023-08-20T03:05:43;12.07;;;10.30;;
71303;SDS011;59091;47.446;19.148;2023-08-20T03:08:09;11.82;;;9.60;;
71303;SDS011;59091;47.446;19.148;2023-08-20T03:10:35;11.98;;;9.43;;
71303;SDS011;59091;47.446;19.148;2023-08-20T03:13:03;12.35;;;10.13;;
71303;SDS011;59091;47.446;19.148;2023-08-20T03:15:29;12.25;;;9.55;;
71303;SDS011;59091;47.446;19.148;2023-08-20T03:17:55;11.65;;;9.73;;
71303;SDS011;59091;47.446;19.148;2023-08-20T03:20:21;10.70;;;9.60;;
71303;SDS011;59091;47.446;19.148;2023-08-20T03:22:46;12.75;;;9.88;;
71303;SDS011;59091;47.446;19.148;2023-08-20T03:25:12;11.52;;;9.68;;
71303;SDS011;59091;47.446;19.148;2023-08-20T03:27:37;10.77;;;9.68;;
71303;SDS011;59091;47.446;19.148;2023-08-20T03:30:03;11.50;;;10.30;;
71303;SDS011;59091;47.446;19.148;2023-08-20T03:32:29;10.70;;;9.60;;
71303;SDS011;59091;47.446;19.148;2023-08-20T03:34:54;12.55;;;9.60;;
71303;SDS011;59091;47.446;19.148;2023-08-20T03:37:21;10.93;;;9.80;;
71303;SDS011;59091;47.446;19.148;2023-08-20T03:39:47;11.32;;;9.52;;
71303;SDS011;59091;47.446;19.148;2023-08-20T03:42:12;12.95;;;10.18;;
71303;SDS011;59091;47.446;19.148;2023-08-20T03:44:38;13.75;;;9.57;;
71303;SDS011;59091;47.446;19.148;2023-08-20T03:47:03;11.80;;;9.82;;
71303;SDS011;59091;47.446;19.148;2023-08-20T03:49:29;12.88;;;9.38;;
71303;SDS011;59091;47.446;19.148;2023-08-20T03:51:54;16.00;;;10.00;;
71303;SDS011;59091;47.446;19.148;2023-08-20T03:54:20;13.65;;;9.75;;
71303;SDS011;59091;47.446;19.148;2023-08-20T03:56:45;11.00;;;9.77;;
71303;SDS011;59091;47.446;19.148;2023-08-20T03:59:11;17.50;;;9.85;;
71303;SDS011;59091;47.446;19.148;2023-08-20T04:01:36;12.25;;;9.57;;
71303;SDS011;59091;47.446;19.148;2023-08-20T04:04:02;10.93;;;9.80;;
71303;SDS011;59091;47.446;19.148;2023-08-20T04:06:28;13.75;;;9.20;;
71303;SDS011;59091;47.446;19.148;2023-08-20T04:08:54;18.50;;;9.88;;
71303;SDS011;59091;47.446;19.148;2023-08-20T04:11:19;10.68;;;9.57;;
71303;SDS011;59091;47.446;19.148;2023-08-20T04:13:45;15.80;;;10.35;;
71303;SDS011;59091;47.446;19.148;2023-08-20T04:16:10;12.00;;;9.77;;
71303;SDS011;59091;47.446;19.148;2023-08-20T04:18:36;13.90;;;10.15;;
71303;SDS011;59091;47.446;19.148;2023-08-20T04:21:01;10.52;;;9.40;;
71303;SDS011;59091;47.446;19.148;2023-08-20T04:23:27;12.95;;;9.63;;
71303;SDS011;59091;47.446;19.148;2023-08-20T04:25:52;11.38;;;9.80;;
71303;SDS011;59091;47.446;19.148;2023-08-20T04:28:18;14.75;;;10.48;;
71303;SDS011;59091;47.446;19.148;2023-08-20T04:30:43;12.35;;;10.63;;
71303;SDS011;59091;47.446;19.148;2023-08-20T04:33:09;12.48;;;10.75;;
71303;SDS011;59091;47.446;19.148;2023-08-20T04:35:35;11.48;;;10.23;;
71303;SDS011;59091;47.446;19.148;2023-08-20T04:38:01;16.23;;;10.05;;
71303;SDS011;59091;47.446;19.148;2023-08-20T04:40:27;14.57;;;10.55;;
71303;SDS011;59091;47.446;19.148;2023-08-20T04:42:52;12.05;;;10.63;;
71303;SDS011;59091;47.446;19.148;2023-08-20T04:45:18;14.02;;;10.25;;
71303;SDS011;59091;47.446;19.148;2023-08-20T04:47:44;12.18;;;10.90;;
71303;SDS011;59091;47.446;19.148;2023-08-20T04:50:10;14.63;;;10.45;;
71303;SDS011;59091;47.446;19.148;2023-08-20T04:52:36;11.52;;;10.32;;
71303;SDS011;59091;47.446;19.148;2023-08-20T04:55:01;13.93;;;10.68;;
71303;SDS011;59091;47.446;19.148;2023-08-20T04:57:27;12.95;;;10.60;;
71303;SDS011;59091;47.446;19.148;2023-08-20T04:59:53;16.10;;;10.48;;
71303;SDS011;59091;47.446;19.148;2023-08-20T05:02:18;11.25;;;9.32;;
71303;SDS011;59091;47.446;19.148;2023-08-20T05:04:44;12.38;;;9.90;;
71303;SDS011;59091;47.446;19.148;2023-08-20T05:07:10;12.10;;;9.18;;
71303;SDS011;59091;47.446;19.148;2023-08-20T05:09:35;10.77;;;8.73;;
71303;SDS011;59091;47.446;19.148;2023-08-20T05:12:01;14.65;;;9.70;;
71303;SDS011;59091;47.446;19.148;2023-08-20T05:14:27;12.43;;;8.98;;
71303;SDS011;59091;47.446;19.148;2023-08-20T05:16:53;14.30;;;9.25;;
71303;SDS011;59091;47.446;19.148;2023-08-20T05:19:18;10.38;;;9.00;;
71303;SDS011;59091;47.446;19.148;2023-08-20T05:21:44;11.80;;;9.30;;
71303;SDS011;59091;47.446;19.148;2023-08-20T05:24:09;14.50;;;9.23;;
71303;SDS011;59091;47.446;19.148;2023-08-20T05:26:35;11.63;;;9.25;;
71303;SDS011;59091;47.446;19.148;2023-08-20T05:29:00;10.45;;;9.23;;
71303;SDS011;59091;47.446;19.148;2023-08-20T05:31:26;10.45;;;9.10;;
71303;SDS011;59091;47.446;19.148;2023-08-20T05:33:51;12.60;;;9.35;;
71303;SDS011;59091;47.446;19.148;2023-08-20T05:36:16;12.55;;;8.30;;
71303;SDS011;59091;47.446;19.148;2023-08-20T05:38:42;9.43;;;8.60;;
71303;SDS011;59091;47.446;19.148;2023-08-20T05:41:08;9.95;;;8.98;;
71303;SDS011;59091;47.446;19.148;2023-08-20T05:43:33;9.48;;;8.48;;
71303;SDS011;59091;47.446;19.148;2023-08-20T05:45:59;11.90;;;8.68;;
71303;SDS011;59091;47.446;19.148;2023-08-20T05:48:24;9.07;;;8.00;;
71303;SDS011;59091;47.446;19.148;2023-08-20T05:50:49;9.32;;;8.35;;
71303;SDS011;59091;47.446;19.148;2023-08-20T05:53:15;11.10;;;8.27;;
71303;SDS011;59091;47.446;19.148;2023-08-20T05:55:40;13.20;;;8.52;;
71303;SDS011;59091;47.446;19.148;2023-08-20T05:58:06;9.25;;;7.78;;
71303;SDS011;59091;47.446;19.148;2023-08-20T06:00:31;11.02;;;8.52;;
71303;SDS011;59091;47.446;19.148;2023-08-20T06:02:57;9.30;;;8.32;;
71303;SDS011;59091;47.446;19.148;2023-08-20T06:05:22;11.13;;;8.55;;
71303;SDS011;59091;47.446;19.148;2023-08-20T06:07:47;10.75;;;7.63;;
71303;SDS011;59091;47.446;19.148;2023-08-20T06:10:13;9.02;;;8.13;;
71303;SDS011;59091;47.446;19.148;2023-08-20T06:12:38;14.40;;;7.93;;
71303;SDS011;59091;47.446;19.148;2023-08-20T06:15:04;13.10;;;8.20;;
71303;SDS011;59091;47.446;19.148;2023-08-20T06:17:30;9.07;;;7.85;;
71303;SDS011;59091;47.446;19.148;2023-08-20T06:19:56;9.98;;;8.07;;
71303;SDS011;59091;47.446;19.148;2023-08-20T06:22:21;7.97;;;7.25;;
71303;SDS011;59091;47.446;19.148;2023-08-20T06:24:47;10.48;;;7.35;;
71303;SDS011;59091;47.446;19.148;2023-08-20T06:27:12;13.13;;;7.32;;
71303;SDS011;59091;47.446;19.148;2023-08-20T06:29:37;8.32;;;7.43;;
71303;SDS011;59091;47.446;19.148;2023-08-20T06:32:04;14.27;;;7.43;;
71303;SDS011;59091;47.446;19.148;2023-08-20T06:34:29;9.35;;;7.30;;
71303;SDS011;59091;47.446;19.148;2023-08-20T06:36:55;10.85;;;7.68;;
71303;SDS011;59091;47.446;19.148;2023-08-20T06:39:20;13.90;;;6.78;;
71303;SDS011;59091;47.446;19.148;2023-08-20T06:41:46;8.25;;;6.78;;
71303;SDS011;59091;47.446;19.148;2023-08-20T06:44:11;9.07;;;6.70;;
71303;SDS011;59091;47.446;19.148;2023-08-20T06:46:36;11.52;;;6.90;;
71303;SDS011;59091;47.446;19.148;2023-08-20T06:49:02;10.57;;;7.18;;
71303;SDS011;59091;47.446;19.148;2023-08-20T06:51:28;8.60;;;6.65;;
71303;SDS011;59091;47.446;19.148;2023-08-20T06:53:53;12.02;;;6.60;;
71303;SDS011;59091;47.446;19.148;2023-08-20T06:56:20;11.52;;;6.63;;
71303;SDS011;59091;47.446;19.148;2023-08-20T06:58:46;7.85;;;6.47;;
71303;SDS011;59091;47.446;19.148;2023-08-20T07:01:11;9.57;;;6.97;;
71303;SDS011;59091;47.446;19.148;2023-08-20T07:03:38;8.75;;;6.38;;
71303;SDS011;59091;47.446;19.148;2023-08-20T07:06:05;8.52;;;6.63;;
71303;SDS011;59091;47.446;19.148;2023-08-20T07:08:30;11.30;;;6.72;;
71303;SDS011;59091;47.446;19.148;2023-08-20T07:10:56;15.77;;;6.47;;
71303;SDS011;59091;47.446;19.148;2023-08-20T07:13:22;8.75;;;6.35;;
71303;SDS011;59091;47.446;19.148;2023-08-20T07:15:48;13.10;;;6.15;;
71303;SDS011;59091;47.446;19.148;2023-08-20T07:18:13;13.10;;;5.75;;
71303;SDS011;59091;47.446;19.148;2023-08-20T07:20:41;6.78;;;6.07;;
71303;SDS011;59091;47.446;19.148;2023-08-20T07:23:07;9.35;;;6.60;;
71303;SDS011;59091;47.446;19.148;2023-08-20T07:25:33;6.38;;;5.70;;
71303;SDS011;59091;47.446;19.148;2023-08-20T07:28:01;8.73;;;5.93;;
71303;SDS011;59091;47.446;19.148;2023-08-20T07:30:27;8.50;;;6.32;;
71303;SDS011;59091;47.446;19.148;2023-08-20T07:32:53;7.97;;;5.50;;
71303;SDS011;59091;47.446;19.148;2023-08-20T07:35:19;8.52;;;5.80;;
71303;SDS011;59091;47.446;19.148;2023-08-20T07:37:44;7.88;;;5.70;;
71303;SDS011;59091;47.446;19.148;2023-08-20T07:40:11;8.68;;;6.20;;
71303;SDS011;59091;47.446;19.148;2023-08-20T07:42:37;10.07;;;5.75;;
71303;SDS011;59091;47.446;19.148;2023-08-20T07:45:03;7.38;;;5.10;;
71303;SDS011;59091;47.446;19.148;2023-08-20T07:47:29;7.95;;;5.45;;
71303;SDS011;59091;47.446;19.148;2023-08-20T07:49:54;8.43;;;5.57;;
71303;SDS011;59091;47.446;19.148;2023-08-20T07:52:20;7.68;;;5.47;;
71303;SDS011;59091;47.446;19.148;2023-08-20T07:54:45;11.25;;;5.18;;
71303;SDS011;59091;47.446;19.148;2023-08-20T07:57:11;6.18;;;5.47;;
71303;SDS011;59091;47.446;19.148;2023-08-20T07:59:37;9.68;;;5.55;;
71303;SDS011;59091;47.446;19.148;2023-08-20T08:02:03;10.52;;;5.20;;
71303;SDS011;59091;47.446;19.148;2023-08-20T08:04:28;5.90;;;5.20;;
71303;SDS011;59091;47.446;19.148;2023-08-20T08:06:54;6.47;;;5.22;;
71303;SDS011;59091;47.446;19.148;2023-08-20T08:09:20;6.38;;;5.40;;
71303;SDS011;59091;47.446;19.148;2023-08-20T08:11:47;5.63;;;5.13;;
71303;SDS011;59091;47.446;19.148;2023-08-20T08:14:13;5.95;;;5.35;;
71303;SDS011;59091;47.446;19.148;2023-08-20T08:16:39;7.63;;;5.18;;
71303;SDS011;59091;47.446;19.148;2023-08-20T08:19:04;6.30;;;5.18;;
71303;SDS011;59091;47.446;19.148;2023-08-20T08:21:29;6.90;;;5.28;;
71303;SDS011;59091;47.446;19.148;2023-08-20T08:23:55;8.52;;;5.80;;
71303;SDS011;59091;47.446;19.148;2023-08-20T08:26:20;10.13;;;5.45;;
71303;SDS011;59091;47.446;19.148;2023-08-20T08:28:45;5.72;;;4.93;;
71303;SDS011;59091;47.446;19.148;2023-08-20T08:31:11;6.18;;;5.57;;
71303;SDS011;59091;47.446;19.148;2023-08-20T08:33:36;5.72;;;5.18;;
71303;SDS011;59091;47.446;19.148;2023-08-20T08:36:02;11.32;;;5.32;;
71303;SDS011;59091;47.446;19.148;2023-08-20T08:38:27;5.88;;;5.28;;
71303;SDS011;59091;47.446;19.148;2023-08-20T08:40:53;6.82;;;5.20;;
71303;SDS011;59091;47.446;19.148;2023-08-20T08:43:20;8.63;;;5.45;;
71303;SDS011;59091;47.446;19.148;2023-08-20T08:45:46;6.90;;;5.43;;
71303;SDS011;59091;47.446;19.148;2023-08-20T08:48:15;5.95;;;5.35;;
71303;SDS011;59091;47.446;19.148;2023-08-20T08:50:42;9.43;;;5.40;;
71303;SDS011;59091;47.446;19.148;2023-08-20T08:53:08;6.72;;;5.30;;
71303;SDS011;59091;47.446;19.148;2023-08-20T08:55:35;6.18;;;5.32;;
71303;SDS011;59091;47.446;19.148;2023-08-20T08:58:02;8.45;;;5.13;;
71303;SDS011;59091;47.446;19.148;2023-08-20T09:00:27;5.57;;;4.97;;
71303;SDS011;59091;47.446;19.148;2023-08-20T09:02:55;8.13;;;4.88;;
71303;SDS011;59091;47.446;19.148;2023-08-20T09:05:20;8.43;;;5.03;;
71303;SDS011;59091;47.446;19.148;2023-08-20T09:07:45;6.70;;;5.25;;
71303;SDS011;59091;47.446;19.148;2023-08-20T09:10:11;7.03;;;5.28;;
71303;SDS011;59091;47.446;19.148;2023-08-20T09:12:38;9.35;;;5.22;;
71303;SDS011;59091;47.446;19.148;2023-08-20T09:15:09;11.05;;;5.35;;
71303;SDS011;59091;47.446;19.148;2023-08-20T09:17:35;5.82;;;5.20;;
71303;SDS011;59091;47.446;19.148;2023-08-20T09:20:00;9.75;;;5.40;;
71303;SDS011;59091;47.446;19.148;2023-08-20T09:22:26;8.00;;;4.95;;
71303;SDS011;59091;47.446;19.148;2023-08-20T09:24:53;5.38;;;4.88;;
71303;SDS011;59091;47.446;19.148;2023-08-20T09:27:20;11.32;;;5.10;;
71303;SDS011;59091;47.446;19.148;2023-08-20T09:32:13;8.80;;;5.22;;
71303;SDS011;59091;47.446;19.148;2023-08-20T09:34:40;8.45;;;5.22;;
71303;SDS011;59091;47.446;19.148;2023-08-20T09:37:09;8.68;;;5.20;;
71303;SDS011;59091;47.446;19.148;2023-08-20T09:39:35;8.30;;;5.00;;
71303;SDS011;59091;47.446;19.148;2023-08-20T09:42:01;7.68;;;5.30;;
71303;SDS011;59091;47.446;19.148;2023-08-20T09:44:32;10.85;;;5.00;;
71303;SDS011;59091;47.446;19.148;2023-08-20T09:47:11;6.97;;;5.28;;
71303;SDS011;59091;47.446;19.148;2023-08-20T09:52:05;7.35;;;5.47;;
71303;SDS011;59091;47.446;19.148;2023-08-20T09:57:36;7.70;;;5.40;;
71303;SDS011;59091;47.446;19.148;2023-08-20T10:00:03;6.45;;;5.80;;
71303;SDS011;59091;47.446;19.148;2023-08-20T10:02:36;10.57;;;5.65;;
71303;SDS011;59091;47.446;19.148;2023-08-20T10:05:02;7.75;;;5.47;;
71303;SDS011;59091;47.446;19.148;2023-08-20T10:07:30;8.80;;;5.53;;
71303;SDS011;59091;47.446;19.148;2023-08-20T10:09:56;11.57;;;5.70;;
71303;SDS011;59091;47.446;19.148;2023-08-20T10:12:25;11.18;;;6.00;;
71303;SDS011;59091;47.446;19.148;2023-08-20T10:14:52;9.20;;;5.82;;
71303;SDS011;59091;47.446;19.148;2023-08-20T10:17:17;5.50;;;5.10;;
71303;SDS011;59091;47.446;19.148;2023-08-20T10:19:43;7.00;;;5.15;;
71303;SDS011;59091;47.446;19.148;2023-08-20T10:22:08;9.15;;;6.30;;
71303;SDS011;59091;47.446;19.148;2023-08-20T10:24:47;7.93;;;5.70;;
71303;SDS011;59091;47.446;19.148;2023-08-20T10:27:23;5.85;;;5.35;;
71303;SDS011;59091;47.446;19.148;2023-08-20T10:29:53;8.45;;;5.45;;
71303;SDS011;59091;47.446;19.148;2023-08-20T10:32:19;7.47;;;5.22;;
71303;SDS011;59091;47.446;19.148;2023-08-20T10:34:51;7.88;;;6.10;;
71303;SDS011;59091;47.446;19.148;2023-08-20T10:37:26;8.63;;;5.70;;
71303;SDS011;59091;47.446;19.148;2023-08-20T10:39:54;9.27;;;5.40;;
71303;SDS011;59091;47.446;19.148;2023-08-20T10:47:25;6.28;;;5.75;;
71303;SDS011;59091;47.446;19.148;2023-08-20T10:50:01;17.40;;;11.32;;
71303;SDS011;59091;47.446;19.148;2023-08-20T10:52:27;18.85;;;10.80;;
71303;SDS011;59091;47.446;19.148;2023-08-20T10:54:53;9.32;;;7.10;;
71303;SDS011;59091;47.446;19.148;2023-08-20T10:57:21;10.82;;;5.97;;
71303;SDS011;59091;47.446;19.148;2023-08-20T10:59:56;7.90;;;5.80;;
71303;SDS011;59091;47.446;19.148;2023-08-20T11:02:25;10.40;;;5.68;;
71303;SDS011;59091;47.446;19.148;2023-08-20T11:04:51;7.72;;;5.35;;
71303;SDS011;59091;47.446;19.148;2023-08-20T11:07:18;13.05;;;5.30;;
71303;SDS011;59091;47.446;19.148;2023-08-20T11:09:44;10.18;;;5.38;;
71303;SDS011;59091;47.446;19.148;2023-08-20T11:12:14;6.72;;;5.22;;
71303;SDS011;59091;47.446;19.148;2023-08-20T11:14:39;8.88;;;4.90;;
71303;SDS011;59091;47.446;19.148;2023-08-20T11:17:05;5.18;;;4.68;;
71303;SDS011;59091;47.446;19.148;2023-08-20T11:19:33;7.15;;;4.32;;
71303;SDS011;59091;47.446;19.148;2023-08-20T11:21:58;7.43;;;5.00;;
71303;SDS011;59091;47.446;19.148;2023-08-20T11:24:28;11.65;;;5.82;;
71303;SDS011;59091;47.446;19.148;2023-08-20T11:26:54;6.10;;;5.13;;
71303;SDS011;59091;47.446;19.148;2023-08-20T11:29:20;9.10;;;5.00;;
71303;SDS011;59091;47.446;19.148;2023-08-20T11:31:46;9.20;;;5.72;;
71303;SDS011;59091;47.446;19.148;2023-08-20T11:34:12;7.55;;;5.50;;
71303;SDS011;59091;47.446;19.148;2023-08-20T11:36:38;9.15;;;5.22;;
71303;SDS011;59091;47.446;19.148;2023-08-20T11:39:04;7.18;;;5.53;;
71303;SDS011;59091;47.446;19.148;2023-08-20T11:41:30;8.35;;;5.50;;
71303;SDS011;59091;47.446;19.148;2023-08-20T11:43:56;6.78;;;5.18;;
71303;SDS011;59091;47.446;19.148;2023-08-20T11:46:22;10.18;;;5.47;;
71303;SDS011;59091;47.446;19.148;2023-08-20T11:48:58;9.43;;;5.30;;
71303;SDS011;59091;47.446;19.148;2023-08-20T11:51:24;8.95;;;5.20;;
71303;SDS011;59091;47.446;19.148;2023-08-20T11:53:50;8.77;;;4.95;;
71303;SDS011;59091;47.446;19.148;2023-08-20T11:56:15;11.20;;;5.20;;
71303;SDS011;59091;47.446;19.148;2023-08-20T11:58:41;7.47;;;5.10;;
71303;SDS011;59091;47.446;19.148;2023-08-20T12:01:07;10.18;;;5.22;;
71303;SDS011;59091;47.446;19.148;2023-08-20T12:03:33;9.95;;;6.03;;
71303;SDS011;59091;47.446;19.148;2023-08-20T12:05:58;8.18;;;5.57;;
71303;SDS011;59091;47.446;19.148;2023-08-20T12:08:24;8.20;;;5.55;;
71303;SDS011;59091;47.446;19.148;2023-08-20T12:10:49;7.03;;;5.75;;
71303;SDS011;59091;47.446;19.148;2023-08-20T12:13:14;9.63;;;5.50;;
71303;SDS011;59091;47.446;19.148;2023-08-20T12:15:40;6.80;;;5.80;;
71303;SDS011;59091;47.446;19.148;2023-08-20T12:18:06;9.30;;;5.32;;
71303;SDS011;59091;47.446;19.148;2023-08-20T12:20:34;10.63;;;5.53;;
71303;SDS011;59091;47.446;19.148;2023-08-20T12:23:05;10.65;;;5.38;;
71303;SDS011;59091;47.446;19.148;2023-08-20T12:25:32;10.77;;;5.60;;
71303;SDS011;59091;47.446;19.148;2023-08-20T12:28:02;7.07;;;5.63;;
71303;SDS011;59091;47.446;19.148;2023-08-20T12:30:31;8.32;;;5.70;;
71303;SDS011;59091;47.446;19.148;2023-08-20T12:32:57;6.95;;;5.72;;
71303;SDS011;59091;47.446;19.148;2023-08-20T12:35:23;6.75;;;5.63;;
71303;SDS011;59091;47.446;19.148;2023-08-20T12:37:48;10.15;;;5.10;;
71303;SDS011;59091;47.446;19.148;2023-08-20T12:40:14;10.35;;;5.15;;
71303;SDS011;59091;47.446;19.148;2023-08-20T12:42:39;5.90;;;5.13;;
71303;SDS011;59091;47.446;19.148;2023-08-20T12:45:05;6.05;;;5.20;;
71303;SDS011;59091;47.446;19.148;2023-08-20T12:47:32;8.10;;;5.00;;
71303;SDS011;59091;47.446;19.148;2023-08-20T12:49:58;9.65;;;5.40;;
71303;SDS011;59091;47.446;19.148;2023-08-20T12:52:23;5.93;;;5.35;;
71303;SDS011;59091;47.446;19.148;2023-08-20T12:54:48;6.45;;;5.53;;
71303;SDS011;59091;47.446;19.148;2023-08-20T12:57:14;6.38;;;5.43;;
71303;SDS011;59091;47.446;19.148;2023-08-20T12:59:40;6.13;;;5.28;;
71303;SDS011;59091;47.446;19.148;2023-08-20T13:02:05;10.68;;;5.95;;
71303;SDS011;59091;47.446;19.148;2023-08-20T13:04:31;6.95;;;5.50;;
71303;SDS011;59091;47.446;19.148;2023-08-20T13:06:56;5.95;;;5.35;;
71303;SDS011;59091;47.446;19.148;2023-08-20T13:09:22;7.00;;;5.28;;
71303;SDS011;59091;47.446;19.148;2023-08-20T13:11:48;6.20;;;5.60;;
71303;SDS011;59091;47.446;19.148;2023-08-20T13:14:14;6.30;;;5.70;;
71303;SDS011;59091;47.446;19.148;2023-08-20T13:16:40;5.78;;;5.18;;
71303;SDS011;59091;47.446;19.148;2023-08-20T13:19:05;5.82;;;5.32;;
71303;SDS011;59091;47.446;19.148;2023-08-20T13:21:31;8.82;;;5.60;;
71303;SDS011;59091;47.446;19.148;2023-08-20T13:23:57;6.82;;;5.30;;
71303;SDS011;59091;47.446;19.148;2023-08-20T13:26:22;10.05;;;5.70;;
71303;SDS011;59091;47.446;19.148;2023-08-20T13:28:48;8.93;;;5.82;;
71303;SDS011;59091;47.446;19.148;2023-08-20T13:31:13;9.13;;;5.80;;
71303;SDS011;59091;47.446;19.148;2023-08-20T13:33:39;6.10;;;5.50;;
71303;SDS011;59091;47.446;19.148;2023-08-20T13:36:05;9.88;;;5.85;;
71303;SDS011;59091;47.446;19.148;2023-08-20T13:38:32;6.20;;;5.70;;
71303;SDS011;59091;47.446;19.148;2023-08-20T13:40:57;12.00;;;6.13;;
71303;SDS011;59091;47.446;19.148;2023-08-20T13:43:23;9.02;;;5.82;;
71303;SDS011;59091;47.446;19.148;2023-08-20T13:45:48;7.15;;;6.20;;
71303;SDS011;59091;47.446;19.148;2023-08-20T13:48:14;6.22;;;5.63;;
71303;SDS011;59091;47.446;19.148;2023-08-20T13:50:39;11.95;;;6.03;;
71303;SDS011;59091;47.446;19.148;2023-08-20T13:53:05;7.75;;;5.95;;
71303;SDS011;59091;47.446;19.148;2023-08-20T13:55:31;6.40;;;5.72;;
71303;SDS011;59091;47.446;19.148;2023-08-20T13:57:56;14.68;;;6.28;;
71303;SDS011;59091;47.446;19.148;2023-08-20T14:00:22;8.77;;;5.93;;
71303;SDS011;59091;47.446;19.148;2023-08-20T14:02:47;11.75;;;6.30;;
71303;SDS011;59091;47.446;19.148;2023-08-20T14:05:13;8.18;;;6.05;;
71303;SDS011;59091;47.446;19.148;2023-08-20T14:07:38;8.43;;;5.53;;
71303;SDS011;59091;47.446;19.148;2023-08-20T14:10:04;6.13;;;5.57;;
71303;SDS011;59091;47.446;19.148;2023-08-20T14:12:30;7.72;;;5.70;;
71303;SDS011;59091;47.446;19.148;2023-08-20T14:14:56;6.50;;;5.53;;
71303;SDS011;59091;47.446;19.148;2023-08-20T14:17:21;8.18;;;5.18;;
71303;SDS011;59091;47.446;19.148;2023-08-20T14:19:47;11.07;;;5.35;;
71303;SDS011;59091;47.446;19.148;2023-08-20T14:22:12;8.00;;;5.85;;
71303;SDS011;59091;47.446;19.148;2023-08-20T14:24:38;7.82;;;5.30;;
71303;SDS011;59091;47.446;19.148;2023-08-20T14:27:03;7.88;;;5.38;;
71303;SDS011;59091;47.446;19.148;2023-08-20T14:29:29;5.75;;;5.15;;
71303;SDS011;59091;47.446;19.148;2023-08-20T14:31:54;6.97;;;5.93;;
71303;SDS011;59091;47.446;19.148;2023-08-20T14:34:19;7.35;;;5.40;;
71303;SDS011;59091;47.446;19.148;2023-08-20T14:36:45;6.03;;;5.20;;
71303;SDS011;59091;47.446;19.148;2023-08-20T14:39:10;7.45;;;5.10;;